sensor_id;sensor_type;location;lat;lon;timestamp;P1;durP1;ratioP1;P2;durP2;ratioP2
25609;SDS011;13479;49.044;8.716;2023-04-02T04:03:44;1.40;;;0.40;;
25609;SDS011;13479;49.044;8.716;2023-04-02T04:06:26;0.63;;;0.40;;
25609;SDS011;13479;49.044;8.716;2023-04-02T04:11:48;1.33;;;0.55;;
25609;SDS011;13479;49.044;8.716;2023-04-02T04:14:31;1.00;;;0.30;;
25609;SDS011;13479;49.044;8.716;2023-04-02T04:22:23;2.30;;;0.55;;
25609;SDS011;13479;49.044;8.716;2023-04-02T04:24:54;1.23;;;0.40;;
25609;SDS011;13479;49.044;8.716;2023-04-02T04:27:34;3.28;;;0.57;;
25609;SDS011;13479;49.044;8.716;2023-04-02T04:35:32;1.60;;;0.40;;
25609;SDS011;13479;49.044;8.716;2023-04-02T04:38:05;3.30;;;0.82;;
25609;SDS011;13479;49.044;8.716;2023-04-02T04:40:41;2.00;;;1.02;;
25609;SDS011;13479;49.044;8.716;2023-04-02T04:43:17;2.03;;;0.73;;
25609;SDS011;13479;49.044;8.716;2023-04-02T04:45:59;1.83;;;0.43;;
25609;SDS011;13479;49.044;8.716;2023-04-02T04:48:46;2.17;;;0.65;;
25609;SDS011;13479;49.044;8.716;2023-04-02T04:51:18;1.55;;;0.50;;
25609;SDS011;13479;49.044;8.716;2023-04-02T04:53:49;1.13;;;0.60;;
25609;SDS011;13479;49.044;8.716;2023-04-02T04:56:17;2.65;;;0.50;;
25609;SDS011;13479;49.044;8.716;2023-04-02T04:58:48;2.70;;;0.60;;
25609;SDS011;13479;49.044;8.716;2023-04-02T05:01:36;0.47;;;0.30;;
25609;SDS011;13479;49.044;8.716;2023-04-02T05:06:51;1.25;;;0.43;;
25609;SDS011;13479;49.044;8.716;2023-04-02T05:09:37;0.93;;;0.47;;
25609;SDS011;13479;49.044;8.716;2023-04-02T05:16:02;1.23;;;0.60;;
25609;SDS011;13479;49.044;8.716;2023-04-02T05:20:33;1.08;;;0.45;;
25609;SDS011;13479;49.044;8.716;2023-04-02T05:23:09;0.82;;;0.50;;
25609;SDS011;13479;49.044;8.716;2023-04-02T05:25:50;2.50;;;0.70;;
25609;SDS011;13479;49.044;8.716;2023-04-02T05:28:20;2.70;;;0.50;;
25609;SDS011;13479;49.044;8.716;2023-04-02T05:30:58;3.08;;;0.60;;
25609;SDS011;13479;49.044;8.716;2023-04-02T05:33:30;0.98;;;0.60;;
25609;SDS011;13479;49.044;8.716;2023-04-02T05:38:45;2.25;;;0.65;;
25609;SDS011;13479;49.044;8.716;2023-04-02T05:41:29;0.70;;;0.50;;
25609;SDS011;13479;49.044;8.716;2023-04-02T05:44:20;1.73;;;0.73;;
25609;SDS011;13479;49.044;8.716;2023-04-02T05:46:58;3.70;;;0.60;;
25609;SDS011;13479;49.044;8.716;2023-04-02T05:49:41;3.05;;;0.68;;
25609;SDS011;13479;49.044;8.716;2023-04-02T05:52:14;1.70;;;0.70;;
25609;SDS011;13479;49.044;8.716;2023-04-02T05:54:45;0.98;;;0.60;;
25609;SDS011;13479;49.044;8.716;2023-04-02T05:57:17;1.45;;;0.70;;
25609;SDS011;13479;49.044;8.716;2023-04-02T05:59:48;2.35;;;0.80;;
25609;SDS011;13479;49.044;8.716;2023-04-02T06:05:00;3.03;;;0.80;;
25609;SDS011;13479;49.044;8.716;2023-04-02T06:07:32;1.27;;;0.70;;
25609;SDS011;13479;49.044;8.716;2023-04-02T06:10:09;4.60;;;0.85;;
25609;SDS011;13479;49.044;8.716;2023-04-02T06:15:15;0.98;;;0.60;;
25609;SDS011;13479;49.044;8.716;2023-04-02T06:20:15;3.97;;;0.60;;
25609;SDS011;13479;49.044;8.716;2023-04-02T06:22:42;1.27;;;0.57;;
25609;SDS011;13479;49.044;8.716;2023-04-02T06:28:05;2.85;;;0.82;;
25609;SDS011;13479;49.044;8.716;2023-04-02T06:30:39;1.77;;;0.60;;
25609;SDS011;13479;49.044;8.716;2023-04-02T06:33:06;1.15;;;0.40;;
25609;SDS011;13479;49.044;8.716;2023-04-02T06:35:36;2.45;;;0.47;;
25609;SDS011;13479;49.044;8.716;2023-04-02T06:38:04;2.42;;;0.70;;
25609;SDS011;13479;49.044;8.716;2023-04-02T06:43:01;1.67;;;0.40;;
25609;SDS011;13479;49.044;8.716;2023-04-02T06:45:34;4.72;;;1.20;;
25609;SDS011;13479;49.044;8.716;2023-04-02T06:48:05;2.33;;;0.65;;
25609;SDS011;13479;49.044;8.716;2023-04-02T06:50:56;0.70;;;0.40;;
25609;SDS011;13479;49.044;8.716;2023-04-02T06:53:32;1.40;;;0.43;;
25609;SDS011;13479;49.044;8.716;2023-04-02T06:59:01;0.55;;;0.40;;
25609;SDS011;13479;49.044;8.716;2023-04-02T07:01:29;0.93;;;0.40;;
25609;SDS011;13479;49.044;8.716;2023-04-02T07:03:59;0.90;;;0.50;;
25609;SDS011;13479;49.044;8.716;2023-04-02T07:06:24;1.63;;;0.40;;
25609;SDS011;13479;49.044;8.716;2023-04-02T07:08:51;0.80;;;0.45;;
25609;SDS011;13479;49.044;8.716;2023-04-02T07:11:17;0.80;;;0.40;;
25609;SDS011;13479;49.044;8.716;2023-04-02T07:13:45;0.95;;;0.50;;
25609;SDS011;13479;49.044;8.716;2023-04-02T07:16:16;1.45;;;0.45;;
25609;SDS011;13479;49.044;8.716;2023-04-02T07:18:47;1.75;;;0.60;;
25609;SDS011;13479;49.044;8.716;2023-04-02T07:21:13;3.33;;;0.60;;
25609;SDS011;13479;49.044;8.716;2023-04-02T07:23:38;2.05;;;0.65;;
25609;SDS011;13479;49.044;8.716;2023-04-02T07:26:04;1.77;;;0.70;;
25609;SDS011;13479;49.044;8.716;2023-04-02T07:28:30;1.70;;;0.70;;
25609;SDS011;13479;49.044;8.716;2023-04-02T07:30:56;2.05;;;0.60;;
25609;SDS011;13479;49.044;8.716;2023-04-02T07:33:22;2.63;;;0.70;;
25609;SDS011;13479;49.044;8.716;2023-04-02T07:35:51;2.22;;;0.80;;
25609;SDS011;13479;49.044;8.716;2023-04-02T07:38:17;1.23;;;0.40;;
25609;SDS011;13479;49.044;8.716;2023-04-02T07:40:42;1.52;;;0.70;;
25609;SDS011;13479;49.044;8.716;2023-04-02T07:43:08;1.05;;;0.60;;
25609;SDS011;13479;49.044;8.716;2023-04-02T07:45:34;2.90;;;0.60;;
25609;SDS011;13479;49.044;8.716;2023-04-02T07:48:04;1.80;;;0.77;;
25609;SDS011;13479;49.044;8.716;2023-04-02T07:50:30;1.05;;;0.50;;
25609;SDS011;13479;49.044;8.716;2023-04-02T07:52:55;0.68;;;0.60;;
25609;SDS011;13479;49.044;8.716;2023-04-02T07:55:21;2.03;;;0.80;;
25609;SDS011;13479;49.044;8.716;2023-04-02T07:57:53;1.33;;;0.60;;
25609;SDS011;13479;49.044;8.716;2023-04-02T08:00:21;1.52;;;0.57;;
25609;SDS011;13479;49.044;8.716;2023-04-02T08:02:47;3.15;;;0.70;;
25609;SDS011;13479;49.044;8.716;2023-04-02T08:05:13;0.88;;;0.60;;
25609;SDS011;13479;49.044;8.716;2023-04-02T08:07:39;1.13;;;0.60;;
25609;SDS011;13479;49.044;8.716;2023-04-02T08:10:05;2.85;;;0.93;;
25609;SDS011;13479;49.044;8.716;2023-04-02T08:12:32;2.63;;;0.93;;
25609;SDS011;13479;49.044;8.716;2023-04-02T08:14:57;2.60;;;0.95;;
25609;SDS011;13479;49.044;8.716;2023-04-02T08:17:23;2.92;;;0.65;;
25609;SDS011;13479;49.044;8.716;2023-04-02T08:19:48;2.20;;;0.70;;
25609;SDS011;13479;49.044;8.716;2023-04-02T08:22:13;2.47;;;0.70;;
25609;SDS011;13479;49.044;8.716;2023-04-02T08:24:39;1.98;;;0.90;;
25609;SDS011;13479;49.044;8.716;2023-04-02T08:27:04;2.90;;;0.70;;
25609;SDS011;13479;49.044;8.716;2023-04-02T08:29:29;1.52;;;0.60;;
25609;SDS011;13479;49.044;8.716;2023-04-02T08:31:59;1.10;;;0.60;;
25609;SDS011;13479;49.044;8.716;2023-04-02T08:34:25;3.55;;;0.90;;
25609;SDS011;13479;49.044;8.716;2023-04-02T08:36:54;2.35;;;0.60;;
25609;SDS011;13479;49.044;8.716;2023-04-02T08:39:21;1.42;;;0.70;;
25609;SDS011;13479;49.044;8.716;2023-04-02T08:41:49;1.00;;;0.60;;
25609;SDS011;13479;49.044;8.716;2023-04-02T08:44:31;1.25;;;0.63;;
25609;SDS011;13479;49.044;8.716;2023-04-02T08:47:18;1.13;;;0.70;;
25609;SDS011;13479;49.044;8.716;2023-04-02T08:49:56;1.52;;;0.60;;
25609;SDS011;13479;49.044;8.716;2023-04-02T08:52:31;1.38;;;0.60;;
25609;SDS011;13479;49.044;8.716;2023-04-02T08:55:01;2.03;;;0.70;;
25609;SDS011;13479;49.044;8.716;2023-04-02T08:57:36;1.38;;;0.70;;
25609;SDS011;13479;49.044;8.716;2023-04-02T09:00:34;1.67;;;0.50;;
25609;SDS011;13479;49.044;8.716;2023-04-02T09:03:19;1.65;;;0.60;;
25609;SDS011;13479;49.044;8.716;2023-04-02T09:05:54;2.22;;;0.65;;
25609;SDS011;13479;49.044;8.716;2023-04-02T09:08:21;4.35;;;0.60;;
25609;SDS011;13479;49.044;8.716;2023-04-02T09:13:33;1.98;;;0.60;;
25609;SDS011;13479;49.044;8.716;2023-04-02T09:16:08;2.97;;;1.00;;
25609;SDS011;13479;49.044;8.716;2023-04-02T09:18:35;2.13;;;0.60;;
25609;SDS011;13479;49.044;8.716;2023-04-02T09:21:06;1.95;;;0.85;;
25609;SDS011;13479;49.044;8.716;2023-04-02T09:23:45;2.40;;;0.70;;
25609;SDS011;13479;49.044;8.716;2023-04-02T09:26:22;1.05;;;0.50;;
25609;SDS011;13479;49.044;8.716;2023-04-02T09:28:51;0.88;;;0.60;;
25609;SDS011;13479;49.044;8.716;2023-04-02T09:31:29;2.03;;;0.60;;
25609;SDS011;13479;49.044;8.716;2023-04-02T09:34:00;2.50;;;0.70;;
25609;SDS011;13479;49.044;8.716;2023-04-02T09:39:03;1.05;;;0.65;;
25609;SDS011;13479;49.044;8.716;2023-04-02T09:41:45;1.83;;;0.50;;
25609;SDS011;13479;49.044;8.716;2023-04-02T09:44:19;1.55;;;0.60;;
25609;SDS011;13479;49.044;8.716;2023-04-02T09:46:47;0.75;;;0.47;;
25609;SDS011;13479;49.044;8.716;2023-04-02T09:49:28;1.08;;;0.60;;
25609;SDS011;13479;49.044;8.716;2023-04-02T09:54:41;1.05;;;0.43;;
25609;SDS011;13479;49.044;8.716;2023-04-02T09:57:17;3.15;;;0.60;;
25609;SDS011;13479;49.044;8.716;2023-04-02T10:02:36;0.73;;;0.45;;
25609;SDS011;13479;49.044;8.716;2023-04-02T10:05:02;2.08;;;0.50;;
25609;SDS011;13479;49.044;8.716;2023-04-02T10:07:37;0.95;;;0.40;;
25609;SDS011;13479;49.044;8.716;2023-04-02T10:10:19;0.57;;;0.43;;
25609;SDS011;13479;49.044;8.716;2023-04-02T10:12:52;1.38;;;0.60;;
25609;SDS011;13479;49.044;8.716;2023-04-02T10:15:26;0.93;;;0.40;;
25609;SDS011;13479;49.044;8.716;2023-04-02T10:18:02;1.40;;;0.60;;
25609;SDS011;13479;49.044;8.716;2023-04-02T10:20:33;0.90;;;0.50;;
25609;SDS011;13479;49.044;8.716;2023-04-02T10:23:01;0.65;;;0.50;;
25609;SDS011;13479;49.044;8.716;2023-04-02T10:25:27;1.17;;;0.50;;
25609;SDS011;13479;49.044;8.716;2023-04-02T10:28:04;1.33;;;0.45;;
25609;SDS011;13479;49.044;8.716;2023-04-02T10:30:58;1.65;;;0.40;;
25609;SDS011;13479;49.044;8.716;2023-04-02T10:33:36;1.25;;;0.60;;
25609;SDS011;13479;49.044;8.716;2023-04-02T10:52:20;0.82;;;0.40;;
25609;SDS011;13479;49.044;8.716;2023-04-02T10:54:53;1.55;;;0.60;;
25609;SDS011;13479;49.044;8.716;2023-04-02T10:57:56;0.90;;;0.75;;
25609;SDS011;13479;49.044;8.716;2023-04-02T11:00:21;1.38;;;0.50;;
25609;SDS011;13479;49.044;8.716;2023-04-02T11:05:47;0.73;;;0.40;;
25609;SDS011;13479;49.044;8.716;2023-04-02T11:13:24;1.55;;;0.45;;
25609;SDS011;13479;49.044;8.716;2023-04-02T11:15:55;2.72;;;0.52;;
25609;SDS011;13479;49.044;8.716;2023-04-02T11:18:26;1.38;;;0.52;;
25609;SDS011;13479;49.044;8.716;2023-04-02T11:20:57;1.58;;;0.68;;
25609;SDS011;13479;49.044;8.716;2023-04-02T11:23:28;3.20;;;1.17;;
25609;SDS011;13479;49.044;8.716;2023-04-02T11:29:03;9.27;;;5.93;;
25609;SDS011;13479;49.044;8.716;2023-04-02T11:31:36;4.88;;;2.72;;
25609;SDS011;13479;49.044;8.716;2023-04-02T11:34:01;1.55;;;0.60;;
25609;SDS011;13479;49.044;8.716;2023-04-02T11:39:14;3.40;;;0.95;;
25609;SDS011;13479;49.044;8.716;2023-04-02T11:44:49;0.60;;;0.40;;
25609;SDS011;13479;49.044;8.716;2023-04-02T11:52:30;1.33;;;0.70;;
25609;SDS011;13479;49.044;8.716;2023-04-02T11:54:57;0.75;;;0.50;;
25609;SDS011;13479;49.044;8.716;2023-04-02T11:57:43;0.90;;;0.50;;
25609;SDS011;13479;49.044;8.716;2023-04-02T12:05:41;0.65;;;0.50;;
25609;SDS011;13479;49.044;8.716;2023-04-02T12:10:57;0.73;;;0.52;;
25609;SDS011;13479;49.044;8.716;2023-04-02T12:16:11;0.90;;;0.60;;
25609;SDS011;13479;49.044;8.716;2023-04-02T12:18:42;1.92;;;0.50;;
25609;SDS011;13479;49.044;8.716;2023-04-02T12:21:21;0.70;;;0.50;;
25609;SDS011;13479;49.044;8.716;2023-04-02T12:23:50;0.57;;;0.40;;
25609;SDS011;13479;49.044;8.716;2023-04-02T12:26:27;1.50;;;0.60;;
25609;SDS011;13479;49.044;8.716;2023-04-02T12:29:41;1.48;;;0.65;;
25609;SDS011;13479;49.044;8.716;2023-04-02T12:31:50;1.55;;;0.60;;
25609;SDS011;13479;49.044;8.716;2023-04-02T12:34:19;0.80;;;0.57;;
25609;SDS011;13479;49.044;8.716;2023-04-02T12:36:52;1.33;;;0.70;;
25609;SDS011;13479;49.044;8.716;2023-04-02T12:39:20;0.90;;;0.60;;
25609;SDS011;13479;49.044;8.716;2023-04-02T12:41:46;1.00;;;0.50;;
25609;SDS011;13479;49.044;8.716;2023-04-02T12:44:13;1.02;;;0.60;;
25609;SDS011;13479;49.044;8.716;2023-04-02T12:46:40;1.40;;;0.70;;
25609;SDS011;13479;49.044;8.716;2023-04-02T12:49:15;1.15;;;0.60;;
25609;SDS011;13479;49.044;8.716;2023-04-02T12:52:22;2.72;;;0.70;;
25609;SDS011;13479;49.044;8.716;2023-04-02T12:54:59;1.52;;;0.60;;
25609;SDS011;13479;49.044;8.716;2023-04-02T12:59:53;2.03;;;0.70;;
25609;SDS011;13479;49.044;8.716;2023-04-02T13:02:24;0.68;;;0.60;;
25609;SDS011;13479;49.044;8.716;2023-04-02T13:07:21;1.00;;;0.63;;
25609;SDS011;13479;49.044;8.716;2023-04-02T13:09:53;1.67;;;0.60;;
25609;SDS011;13479;49.044;8.716;2023-04-02T13:12:37;0.63;;;0.40;;
25609;SDS011;13479;49.044;8.716;2023-04-02T13:15:07;0.82;;;0.60;;
25609;SDS011;13479;49.044;8.716;2023-04-02T13:18:06;0.82;;;0.52;;
25609;SDS011;13479;49.044;8.716;2023-04-02T13:20:42;1.08;;;0.50;;
25609;SDS011;13479;49.044;8.716;2023-04-02T13:26:40;0.88;;;0.63;;
25609;SDS011;13479;49.044;8.716;2023-04-02T13:28:57;0.88;;;0.57;;
25609;SDS011;13479;49.044;8.716;2023-04-02T13:31:49;0.77;;;0.55;;
25609;SDS011;13479;49.044;8.716;2023-04-02T13:34:15;1.00;;;0.60;;
25609;SDS011;13479;49.044;8.716;2023-04-02T13:36:41;1.02;;;0.50;;
25609;SDS011;13479;49.044;8.716;2023-04-02T13:39:07;0.82;;;0.52;;
25609;SDS011;13479;49.044;8.716;2023-04-02T13:41:34;1.70;;;0.60;;
25609;SDS011;13479;49.044;8.716;2023-04-02T13:44:03;0.57;;;0.40;;
25609;SDS011;13479;49.044;8.716;2023-04-02T13:46:30;1.75;;;0.45;;
25609;SDS011;13479;49.044;8.716;2023-04-02T13:48:57;0.88;;;0.57;;
25609;SDS011;13479;49.044;8.716;2023-04-02T13:51:25;1.98;;;0.70;;
25609;SDS011;13479;49.044;8.716;2023-04-02T13:53:57;1.63;;;1.00;;
25609;SDS011;13479;49.044;8.716;2023-04-02T13:56:23;2.92;;;0.90;;
25609;SDS011;13479;49.044;8.716;2023-04-02T13:58:49;1.08;;;0.68;;
25609;SDS011;13479;49.044;8.716;2023-04-02T14:01:16;1.50;;;0.70;;
25609;SDS011;13479;49.044;8.716;2023-04-02T14:03:43;1.08;;;0.60;;
25609;SDS011;13479;49.044;8.716;2023-04-02T14:11:31;0.50;;;0.40;;
25609;SDS011;13479;49.044;8.716;2023-04-02T14:14:18;1.25;;;0.60;;
25609;SDS011;13479;49.044;8.716;2023-04-02T14:16:52;1.27;;;0.63;;
25609;SDS011;13479;49.044;8.716;2023-04-02T14:28:03;0.70;;;0.63;;
25609;SDS011;13479;49.044;8.716;2023-04-02T14:33:00;2.75;;;0.95;;
25609;SDS011;13479;49.044;8.716;2023-04-02T14:35:34;1.70;;;0.63;;
25609;SDS011;13479;49.044;8.716;2023-04-02T14:41:35;2.17;;;0.60;;
25609;SDS011;13479;49.044;8.716;2023-04-02T14:44:21;1.88;;;0.50;;
25609;SDS011;13479;49.044;8.716;2023-04-02T14:46:51;1.42;;;0.70;;
25609;SDS011;13479;49.044;8.716;2023-04-02T14:49:27;2.35;;;0.75;;
25609;SDS011;13479;49.044;8.716;2023-04-02T14:52:01;1.02;;;0.70;;
25609;SDS011;13479;49.044;8.716;2023-04-02T14:56:54;0.88;;;0.60;;
25609;SDS011;13479;49.044;8.716;2023-04-02T14:59:33;1.13;;;0.40;;
25609;SDS011;13479;49.044;8.716;2023-04-02T15:02:20;1.50;;;0.80;;
25609;SDS011;13479;49.044;8.716;2023-04-02T15:05:00;3.25;;;0.88;;
25609;SDS011;13479;49.044;8.716;2023-04-02T15:07:35;2.15;;;1.30;;
25609;SDS011;13479;49.044;8.716;2023-04-02T15:12:29;0.80;;;0.70;;
25609;SDS011;13479;49.044;8.716;2023-04-02T15:15:00;1.83;;;0.90;;
25609;SDS011;13479;49.044;8.716;2023-04-02T15:17:31;1.60;;;0.60;;
25609;SDS011;13479;49.044;8.716;2023-04-02T15:19:58;1.50;;;0.80;;
25609;SDS011;13479;49.044;8.716;2023-04-02T15:22:41;1.30;;;0.70;;
25609;SDS011;13479;49.044;8.716;2023-04-02T15:25:19;1.92;;;0.80;;
25609;SDS011;13479;49.044;8.716;2023-04-02T15:30:51;1.92;;;1.10;;
25609;SDS011;13479;49.044;8.716;2023-04-02T15:36:03;1.60;;;1.08;;
25609;SDS011;13479;49.044;8.716;2023-04-02T15:38:56;1.42;;;0.80;;
25609;SDS011;13479;49.044;8.716;2023-04-02T15:41:40;2.08;;;1.02;;
25609;SDS011;13479;49.044;8.716;2023-04-02T15:44:12;1.13;;;0.68;;
25609;SDS011;13479;49.044;8.716;2023-04-02T15:46:43;1.30;;;0.80;;
25609;SDS011;13479;49.044;8.716;2023-04-02T15:57:37;1.52;;;0.75;;
25609;SDS011;13479;49.044;8.716;2023-04-02T16:05:20;0.85;;;0.63;;
25609;SDS011;13479;49.044;8.716;2023-04-02T16:08:12;2.05;;;0.75;;
25609;SDS011;13479;49.044;8.716;2023-04-02T16:11:00;1.10;;;0.60;;
25609;SDS011;13479;49.044;8.716;2023-04-02T16:13:35;1.20;;;0.70;;
25609;SDS011;13479;49.044;8.716;2023-04-02T16:18:36;1.20;;;0.68;;
25609;SDS011;13479;49.044;8.716;2023-04-02T16:21:07;1.02;;;0.80;;
25609;SDS011;13479;49.044;8.716;2023-04-02T16:23:38;1.00;;;0.60;;
25609;SDS011;13479;49.044;8.716;2023-04-02T16:39:42;1.30;;;0.80;;
25609;SDS011;13479;49.044;8.716;2023-04-02T16:42:25;1.40;;;0.70;;
25609;SDS011;13479;49.044;8.716;2023-04-02T16:44:59;1.00;;;0.80;;
25609;SDS011;13479;49.044;8.716;2023-04-02T16:47:59;1.85;;;0.98;;
25609;SDS011;13479;49.044;8.716;2023-04-02T17:01:33;0.90;;;0.70;;
25609;SDS011;13479;49.044;8.716;2023-04-02T17:04:51;0.98;;;0.80;;
25609;SDS011;13479;49.044;8.716;2023-04-02T17:16:15;3.53;;;1.20;;
25609;SDS011;13479;49.044;8.716;2023-04-02T17:18:48;1.70;;;1.38;;
25609;SDS011;13479;49.044;8.716;2023-04-02T17:21:17;1.65;;;1.00;;
25609;SDS011;13479;49.044;8.716;2023-04-02T17:23:54;1.67;;;1.10;;
25609;SDS011;13479;49.044;8.716;2023-04-02T17:26:31;2.05;;;1.25;;
25609;SDS011;13479;49.044;8.716;2023-04-02T17:29:00;2.05;;;1.27;;
25609;SDS011;13479;49.044;8.716;2023-04-02T17:31:31;2.97;;;1.83;;
25609;SDS011;13479;49.044;8.716;2023-04-02T17:34:11;4.37;;;1.50;;
25609;SDS011;13479;49.044;8.716;2023-04-02T17:39:20;4.22;;;1.50;;
25609;SDS011;13479;49.044;8.716;2023-04-02T17:41:57;1.73;;;1.35;;
25609;SDS011;13479;49.044;8.716;2023-04-02T17:52:22;1.98;;;1.30;;
25609;SDS011;13479;49.044;8.716;2023-04-02T17:55:05;1.60;;;0.95;;
25609;SDS011;13479;49.044;8.716;2023-04-02T17:57:46;3.38;;;1.00;;
25609;SDS011;13479;49.044;8.716;2023-04-02T18:02:54;1.92;;;1.40;;
25609;SDS011;13479;49.044;8.716;2023-04-02T18:14:30;1.65;;;1.40;;
25609;SDS011;13479;49.044;8.716;2023-04-02T18:20:42;2.70;;;1.47;;
25609;SDS011;13479;49.044;8.716;2023-04-02T18:22:50;3.30;;;1.30;;
25609;SDS011;13479;49.044;8.716;2023-04-02T18:25:26;3.15;;;1.95;;
25609;SDS011;13479;49.044;8.716;2023-04-02T18:31:17;2.17;;;1.48;;
25609;SDS011;13479;49.044;8.716;2023-04-02T18:39:44;2.13;;;1.73;;
25609;SDS011;13479;49.044;8.716;2023-04-02T18:42:22;3.40;;;2.00;;
25609;SDS011;13479;49.044;8.716;2023-04-02T18:45:35;2.35;;;1.20;;
25609;SDS011;13479;49.044;8.716;2023-04-02T18:50:48;2.10;;;1.40;;
25609;SDS011;13479;49.044;8.716;2023-04-02T18:53:15;2.87;;;1.67;;
25609;SDS011;13479;49.044;8.716;2023-04-02T18:55:47;1.80;;;1.20;;
25609;SDS011;13479;49.044;8.716;2023-04-02T18:58:40;1.17;;;1.00;;
25609;SDS011;13479;49.044;8.716;2023-04-02T19:01:07;2.07;;;1.30;;
25609;SDS011;13479;49.044;8.716;2023-04-02T19:03:37;1.47;;;1.17;;
25609;SDS011;13479;49.044;8.716;2023-04-02T19:06:21;2.07;;;1.60;;
25609;SDS011;13479;49.044;8.716;2023-04-02T19:08:53;3.23;;;0.90;;
25609;SDS011;13479;49.044;8.716;2023-04-02T19:11:22;2.13;;;1.33;;
25609;SDS011;13479;49.044;8.716;2023-04-02T19:14:03;3.63;;;1.50;;
25609;SDS011;13479;49.044;8.716;2023-04-02T19:30:26;2.13;;;1.17;;
25609;SDS011;13479;49.044;8.716;2023-04-02T19:35:43;2.57;;;1.07;;
25609;SDS011;13479;49.044;8.716;2023-04-02T19:38:28;2.70;;;1.57;;
25609;SDS011;13479;49.044;8.716;2023-04-02T19:43:51;3.03;;;1.50;;
25609;SDS011;13479;49.044;8.716;2023-04-02T19:46:17;1.80;;;1.30;;
25609;SDS011;13479;49.044;8.716;2023-04-02T19:51:34;2.67;;;1.30;;
25609;SDS011;13479;49.044;8.716;2023-04-02T19:54:00;2.67;;;1.37;;
25609;SDS011;13479;49.044;8.716;2023-04-02T19:56:26;2.00;;;0.90;;
25609;SDS011;13479;49.044;8.716;2023-04-02T19:58:52;1.83;;;1.27;;
25609;SDS011;13479;49.044;8.716;2023-04-02T20:01:18;3.83;;;1.17;;
25609;SDS011;13479;49.044;8.716;2023-04-02T20:03:43;4.00;;;1.60;;
25609;SDS011;13479;49.044;8.716;2023-04-02T20:06:08;3.37;;;0.90;;
25609;SDS011;13479;49.044;8.716;2023-04-02T20:08:34;1.73;;;1.37;;
25609;SDS011;13479;49.044;8.716;2023-04-02T20:11:00;3.20;;;1.60;;
25609;SDS011;13479;49.044;8.716;2023-04-02T20:13:26;1.30;;;1.00;;
25609;SDS011;13479;49.044;8.716;2023-04-02T20:15:52;2.30;;;1.10;;
25609;SDS011;13479;49.044;8.716;2023-04-02T20:18:17;1.83;;;1.40;;
25609;SDS011;13479;49.044;8.716;2023-04-02T20:20:44;3.00;;;1.67;;
25609;SDS011;13479;49.044;8.716;2023-04-02T20:23:11;3.80;;;1.27;;
25609;SDS011;13479;49.044;8.716;2023-04-02T20:25:36;4.20;;;1.53;;
25609;SDS011;13479;49.044;8.716;2023-04-02T20:28:01;3.43;;;1.40;;
25609;SDS011;13479;49.044;8.716;2023-04-02T20:30:28;3.87;;;1.73;;
25609;SDS011;13479;49.044;8.716;2023-04-02T20:32:56;2.97;;;1.17;;
25609;SDS011;13479;49.044;8.716;2023-04-02T20:35:22;2.57;;;1.40;;
25609;SDS011;13479;49.044;8.716;2023-04-02T20:37:47;3.03;;;1.50;;
25609;SDS011;13479;49.044;8.716;2023-04-02T20:40:12;1.23;;;1.00;;
25609;SDS011;13479;49.044;8.716;2023-04-02T20:42:38;2.10;;;1.10;;
25609;SDS011;13479;49.044;8.716;2023-04-02T20:45:03;3.77;;;1.17;;
25609;SDS011;13479;49.044;8.716;2023-04-02T20:47:30;2.97;;;1.37;;
25609;SDS011;13479;49.044;8.716;2023-04-02T20:49:55;3.23;;;1.50;;
25609;SDS011;13479;49.044;8.716;2023-04-02T20:52:20;3.07;;;1.30;;
25609;SDS011;13479;49.044;8.716;2023-04-02T20:54:46;2.83;;;1.23;;
25609;SDS011;13479;49.044;8.716;2023-04-02T20:57:11;3.83;;;1.53;;
25609;SDS011;13479;49.044;8.716;2023-04-02T20:59:37;4.73;;;1.43;;
